Terminal Aerodrome Forecast
Issued by NWS

Current Version | Previous Version | Text Only | Print | Product List | Glossary On
Versions: 1 2 3 4 5 6 7 8 9 10 11 12 13 14 15 16 17 18 19 20 21 22 23 24 25 26
343
FTUS42 KCAE 250232 AAA
TAFDNL
TAF AMD
KDNL 250232Z 2503/2524 VRB03KT P6SM SCT250
     FM251400 06005KT P6SM SCT040=

USA.gov is the U.S. government's official web portal to all federal, state and local government web resources and services.